sensor_id;sensor_type;location;lat;lon;timestamp;temperature;humidity
38514;DHT22;24282;48.400;10.808;2023-04-01T00:00:56;8.90;74.30
38514;DHT22;24282;48.400;10.808;2023-04-01T00:03:23;8.90;74.60
38514;DHT22;24282;48.400;10.808;2023-04-01T00:05:50;9.00;74.70
38514;DHT22;24282;48.400;10.808;2023-04-01T00:08:16;9.00;74.60
38514;DHT22;24282;48.400;10.808;2023-04-01T00:10:42;8.90;74.80
38514;DHT22;24282;48.400;10.808;2023-04-01T00:13:08;8.90;75.00
38514;DHT22;24282;48.400;10.808;2023-04-01T00:15:34;8.90;74.90
38514;DHT22;24282;48.400;10.808;2023-04-01T00:18:00;8.90;75.00
38514;DHT22;24282;48.400;10.808;2023-04-01T00:20:27;8.90;74.90
38514;DHT22;24282;48.400;10.808;2023-04-01T00:22:52;8.90;74.90
38514;DHT22;24282;48.400;10.808;2023-04-01T00:25:18;8.90;74.70
38514;DHT22;24282;48.400;10.808;2023-04-01T00:27:44;8.90;75.00
38514;DHT22;24282;48.400;10.808;2023-04-01T00:30:11;8.90;74.70
38514;DHT22;24282;48.400;10.808;2023-04-01T00:32:37;8.90;74.80
38514;DHT22;24282;48.400;10.808;2023-04-01T00:35:03;8.90;74.90
38514;DHT22;24282;48.400;10.808;2023-04-01T00:37:29;8.90;75.20
38514;DHT22;24282;48.400;10.808;2023-04-01T00:39:55;9.00;74.50
38514;DHT22;24282;48.400;10.808;2023-04-01T00:42:21;9.00;74.50
38514;DHT22;24282;48.400;10.808;2023-04-01T00:44:50;8.90;74.70
38514;DHT22;24282;48.400;10.808;2023-04-01T00:47:17;8.90;74.90
38514;DHT22;24282;48.400;10.808;2023-04-01T00:49:48;8.90;74.60
38514;DHT22;24282;48.400;10.808;2023-04-01T00:52:18;8.80;74.70
38514;DHT22;24282;48.400;10.808;2023-04-01T00:54:47;8.90;74.60
38514;DHT22;24282;48.400;10.808;2023-04-01T00:57:23;8.90;74.80
38514;DHT22;24282;48.400;10.808;2023-04-01T00:59:52;8.80;74.70
38514;DHT22;24282;48.400;10.808;2023-04-01T01:02:20;8.80;75.00
38514;DHT22;24282;48.400;10.808;2023-04-01T01:04:46;8.80;74.80
38514;DHT22;24282;48.400;10.808;2023-04-01T01:12:26;8.80;74.70
38514;DHT22;24282;48.400;10.808;2023-04-01T01:36:55;8.80;74.50
38514;DHT22;24282;48.400;10.808;2023-04-01T01:39:26;8.90;74.20
38514;DHT22;24282;48.400;10.808;2023-04-01T01:41:57;8.90;74.20
38514;DHT22;24282;48.400;10.808;2023-04-01T01:44:28;8.90;74.50
38514;DHT22;24282;48.400;10.808;2023-04-01T01:46:56;8.90;74.40
38514;DHT22;24282;48.400;10.808;2023-04-01T01:49:22;8.70;74.70
38514;DHT22;24282;48.400;10.808;2023-04-01T01:51:49;8.70;74.80
38514;DHT22;24282;48.400;10.808;2023-04-01T01:54:17;8.70;74.90
38514;DHT22;24282;48.400;10.808;2023-04-01T01:56:46;8.70;74.70
38514;DHT22;24282;48.400;10.808;2023-04-01T01:59:15;8.70;74.70
38514;DHT22;24282;48.400;10.808;2023-04-01T02:01:46;8.70;74.60
38514;DHT22;24282;48.400;10.808;2023-04-01T02:04:14;8.60;74.90
38514;DHT22;24282;48.400;10.808;2023-04-01T02:06:47;8.60;74.90
38514;DHT22;24282;48.400;10.808;2023-04-01T02:09:18;8.60;75.10
38514;DHT22;24282;48.400;10.808;2023-04-01T02:11:54;8.60;75.00
38514;DHT22;24282;48.400;10.808;2023-04-01T02:14:39;8.60;75.00
38514;DHT22;24282;48.400;10.808;2023-04-01T02:17:14;8.50;75.10
38514;DHT22;24282;48.400;10.808;2023-04-01T02:19:50;8.50;75.40
38514;DHT22;24282;48.400;10.808;2023-04-01T02:22:24;8.50;75.30
38514;DHT22;24282;48.400;10.808;2023-04-01T02:24:55;8.50;75.20
38514;DHT22;24282;48.400;10.808;2023-04-01T02:27:23;8.60;75.20
38514;DHT22;24282;48.400;10.808;2023-04-01T02:29:50;8.50;75.10
38514;DHT22;24282;48.400;10.808;2023-04-01T02:32:18;8.40;75.60
38514;DHT22;24282;48.400;10.808;2023-04-01T02:34:45;8.40;75.50
38514;DHT22;24282;48.400;10.808;2023-04-01T02:37:12;8.50;75.80
38514;DHT22;24282;48.400;10.808;2023-04-01T02:39:39;8.50;75.30
38514;DHT22;24282;48.400;10.808;2023-04-01T02:42:05;8.40;75.30
38514;DHT22;24282;48.400;10.808;2023-04-01T02:44:31;8.30;75.80
38514;DHT22;24282;48.400;10.808;2023-04-01T02:46:57;8.30;75.70
38514;DHT22;24282;48.400;10.808;2023-04-01T02:49:23;8.30;75.80
38514;DHT22;24282;48.400;10.808;2023-04-01T02:51:49;8.30;75.80
38514;DHT22;24282;48.400;10.808;2023-04-01T02:54:18;8.30;75.80
38514;DHT22;24282;48.400;10.808;2023-04-01T02:56:45;8.30;75.60
38514;DHT22;24282;48.400;10.808;2023-04-01T02:59:11;8.20;75.70
38514;DHT22;24282;48.400;10.808;2023-04-01T03:01:37;8.10;75.90
38514;DHT22;24282;48.400;10.808;2023-04-01T03:04:03;8.10;75.90
38514;DHT22;24282;48.400;10.808;2023-04-01T03:06:29;8.10;76.00
38514;DHT22;24282;48.400;10.808;2023-04-01T03:08:55;8.20;75.80
38514;DHT22;24282;48.400;10.808;2023-04-01T03:11:21;8.20;75.60
38514;DHT22;24282;48.400;10.808;2023-04-01T03:13:47;8.20;75.50
38514;DHT22;24282;48.400;10.808;2023-04-01T03:16:14;8.20;75.20
38514;DHT22;24282;48.400;10.808;2023-04-01T03:18:40;8.20;75.20
38514;DHT22;24282;48.400;10.808;2023-04-01T03:21:32;8.30;74.90
38514;DHT22;24282;48.400;10.808;2023-04-01T03:23:59;8.20;74.80
38514;DHT22;24282;48.400;10.808;2023-04-01T03:26:25;8.10;75.10
38514;DHT22;24282;48.400;10.808;2023-04-01T03:28:53;8.20;75.30
38514;DHT22;24282;48.400;10.808;2023-04-01T03:31:19;8.10;75.10
38514;DHT22;24282;48.400;10.808;2023-04-01T03:33:50;8.20;74.70
38514;DHT22;24282;48.400;10.808;2023-04-01T03:36:17;8.10;75.10
38514;DHT22;24282;48.400;10.808;2023-04-01T03:38:44;8.10;75.20
38514;DHT22;24282;48.400;10.808;2023-04-01T03:41:15;8.10;75.40
38514;DHT22;24282;48.400;10.808;2023-04-01T03:43:41;8.20;75.30
38514;DHT22;24282;48.400;10.808;2023-04-01T03:46:07;8.20;75.50
38514;DHT22;24282;48.400;10.808;2023-04-01T03:48:33;8.20;74.80
38514;DHT22;24282;48.400;10.808;2023-04-01T03:50:59;8.20;75.00
38514;DHT22;24282;48.400;10.808;2023-04-01T03:53:25;8.20;74.80
38514;DHT22;24282;48.400;10.808;2023-04-01T03:55:54;8.20;75.00
38514;DHT22;24282;48.400;10.808;2023-04-01T03:58:19;8.10;75.20
38514;DHT22;24282;48.400;10.808;2023-04-01T04:00:46;8.10;75.30
38514;DHT22;24282;48.400;10.808;2023-04-01T04:03:11;8.10;75.50
38514;DHT22;24282;48.400;10.808;2023-04-01T04:05:37;8.10;75.60
38514;DHT22;24282;48.400;10.808;2023-04-01T04:08:03;8.10;75.80
38514;DHT22;24282;48.400;10.808;2023-04-01T04:10:30;8.10;75.70
38514;DHT22;24282;48.400;10.808;2023-04-01T04:12:56;8.10;76.10
38514;DHT22;24282;48.400;10.808;2023-04-01T04:15:24;8.10;76.20
38514;DHT22;24282;48.400;10.808;2023-04-01T04:17:50;8.20;76.10
38514;DHT22;24282;48.400;10.808;2023-04-01T04:20:16;8.20;75.90
38514;DHT22;24282;48.400;10.808;2023-04-01T04:22:41;8.10;76.40
38514;DHT22;24282;48.400;10.808;2023-04-01T04:25:08;8.10;76.80
38514;DHT22;24282;48.400;10.808;2023-04-01T04:27:34;8.00;77.50
38514;DHT22;24282;48.400;10.808;2023-04-01T04:30:12;8.10;78.30
38514;DHT22;24282;48.400;10.808;2023-04-01T04:32:37;8.00;78.80
38514;DHT22;24282;48.400;10.808;2023-04-01T04:35:04;8.00;79.20
38514;DHT22;24282;48.400;10.808;2023-04-01T04:37:32;7.90;79.70
38514;DHT22;24282;48.400;10.808;2023-04-01T04:39:58;7.90;79.90
38514;DHT22;24282;48.400;10.808;2023-04-01T04:42:24;7.90;80.00
38514;DHT22;24282;48.400;10.808;2023-04-01T04:44:55;7.90;80.00
38514;DHT22;24282;48.400;10.808;2023-04-01T04:47:21;7.90;80.00
38514;DHT22;24282;48.400;10.808;2023-04-01T04:49:46;7.90;80.00
38514;DHT22;24282;48.400;10.808;2023-04-01T04:52:12;7.80;79.90
38514;DHT22;24282;48.400;10.808;2023-04-01T04:54:38;7.80;79.90
38514;DHT22;24282;48.400;10.808;2023-04-01T04:57:04;7.80;80.00
38514;DHT22;24282;48.400;10.808;2023-04-01T04:59:35;7.80;79.50
38514;DHT22;24282;48.400;10.808;2023-04-01T05:02:09;7.90;79.60
38514;DHT22;24282;48.400;10.808;2023-04-01T05:04:36;7.90;79.40
38514;DHT22;24282;48.400;10.808;2023-04-01T05:07:02;8.00;79.00
38514;DHT22;24282;48.400;10.808;2023-04-01T05:09:30;8.00;78.80
38514;DHT22;24282;48.400;10.808;2023-04-01T05:11:57;7.90;78.90
38514;DHT22;24282;48.400;10.808;2023-04-01T05:14:25;8.00;78.30
38514;DHT22;24282;48.400;10.808;2023-04-01T05:16:58;8.00;78.10
38514;DHT22;24282;48.400;10.808;2023-04-01T05:19:23;8.00;78.20
38514;DHT22;24282;48.400;10.808;2023-04-01T05:21:49;8.00;78.10
38514;DHT22;24282;48.400;10.808;2023-04-01T05:24:15;8.00;78.00
38514;DHT22;24282;48.400;10.808;2023-04-01T05:26:41;8.10;77.80
38514;DHT22;24282;48.400;10.808;2023-04-01T05:29:07;8.10;77.90
38514;DHT22;24282;48.400;10.808;2023-04-01T05:31:33;8.00;77.80
38514;DHT22;24282;48.400;10.808;2023-04-01T05:33:59;8.10;77.40
38514;DHT22;24282;48.400;10.808;2023-04-01T05:36:25;8.10;77.70
38514;DHT22;24282;48.400;10.808;2023-04-01T05:38:55;8.00;77.50
38514;DHT22;24282;48.400;10.808;2023-04-01T05:41:22;8.00;77.50
38514;DHT22;24282;48.400;10.808;2023-04-01T05:43:48;8.00;77.50
38514;DHT22;24282;48.400;10.808;2023-04-01T05:46:33;8.10;77.10
38514;DHT22;24282;48.400;10.808;2023-04-01T05:49:10;8.20;76.60
38514;DHT22;24282;48.400;10.808;2023-04-01T05:51:36;8.20;76.70
38514;DHT22;24282;48.400;10.808;2023-04-01T05:54:04;8.20;76.70
38514;DHT22;24282;48.400;10.808;2023-04-01T05:56:30;8.20;76.40
38514;DHT22;24282;48.400;10.808;2023-04-01T05:58:56;8.20;76.10
38514;DHT22;24282;48.400;10.808;2023-04-01T06:01:23;8.20;76.10
38514;DHT22;24282;48.400;10.808;2023-04-01T06:03:49;8.20;76.20
38514;DHT22;24282;48.400;10.808;2023-04-01T06:06:20;8.20;76.40
38514;DHT22;24282;48.400;10.808;2023-04-01T06:08:49;8.10;76.70
38514;DHT22;24282;48.400;10.808;2023-04-01T06:13:54;8.30;76.20
38514;DHT22;24282;48.400;10.808;2023-04-01T06:47:55;8.80;74.00
38514;DHT22;24282;48.400;10.808;2023-04-01T06:56:48;8.90;74.00
38514;DHT22;24282;48.400;10.808;2023-04-01T06:59:30;8.90;74.10
38514;DHT22;24282;48.400;10.808;2023-04-01T07:02:19;8.90;73.80
38514;DHT22;24282;48.400;10.808;2023-04-01T07:04:51;9.00;73.20
38514;DHT22;24282;48.400;10.808;2023-04-01T07:07:37;9.00;73.30
38514;DHT22;24282;48.400;10.808;2023-04-01T07:10:23;9.00;73.10
38514;DHT22;24282;48.400;10.808;2023-04-01T07:13:22;9.00;72.90
38514;DHT22;24282;48.400;10.808;2023-04-01T07:16:12;9.20;71.70
38514;DHT22;24282;48.400;10.808;2023-04-01T07:18:45;9.20;71.40
38514;DHT22;24282;48.400;10.808;2023-04-01T07:21:34;9.30;71.60
38514;DHT22;24282;48.400;10.808;2023-04-01T07:24:21;9.20;71.70
38514;DHT22;24282;48.400;10.808;2023-04-01T07:27:00;9.30;71.80
38514;DHT22;24282;48.400;10.808;2023-04-01T07:29:30;9.30;72.20
38514;DHT22;24282;48.400;10.808;2023-04-01T07:32:15;9.40;71.90
38514;DHT22;24282;48.400;10.808;2023-04-01T07:35:05;9.40;71.30
38514;DHT22;24282;48.400;10.808;2023-04-01T07:48:58;9.40;71.00
38514;DHT22;24282;48.400;10.808;2023-04-01T07:52:04;9.50;70.40
38514;DHT22;24282;48.400;10.808;2023-04-01T07:57:37;9.50;70.10
38514;DHT22;24282;48.400;10.808;2023-04-01T08:14:36;9.70;69.60
38514;DHT22;24282;48.400;10.808;2023-04-01T08:23:11;9.90;69.30
38514;DHT22;24282;48.400;10.808;2023-04-01T08:25:52;9.90;68.90
38514;DHT22;24282;48.400;10.808;2023-04-01T08:28:30;10.00;68.50
38514;DHT22;24282;48.400;10.808;2023-04-01T08:31:08;10.10;68.00
38514;DHT22;24282;48.400;10.808;2023-04-01T08:33:36;10.20;67.30
38514;DHT22;24282;48.400;10.808;2023-04-01T08:36:14;10.30;66.90
38514;DHT22;24282;48.400;10.808;2023-04-01T08:39:16;10.30;66.90
38514;DHT22;24282;48.400;10.808;2023-04-01T08:47:27;10.30;66.50
38514;DHT22;24282;48.400;10.808;2023-04-01T09:08:11;10.50;66.50
38514;DHT22;24282;48.400;10.808;2023-04-01T09:22:54;10.90;65.70
38514;DHT22;24282;48.400;10.808;2023-04-01T09:28:17;10.90;65.80
38514;DHT22;24282;48.400;10.808;2023-04-01T09:31:08;10.90;66.30
38514;DHT22;24282;48.400;10.808;2023-04-01T09:37:20;11.00;65.30
38514;DHT22;24282;48.400;10.808;2023-04-01T09:40:02;11.00;65.80
38514;DHT22;24282;48.400;10.808;2023-04-01T09:43:02;11.10;65.10
38514;DHT22;24282;48.400;10.808;2023-04-01T10:24:32;10.50;72.00
38514;DHT22;24282;48.400;10.808;2023-04-01T10:26:56;10.60;72.00
38514;DHT22;24282;48.400;10.808;2023-04-01T10:47:24;9.80;74.00
38514;DHT22;24282;48.400;10.808;2023-04-01T11:08:24;9.40;77.10
38514;DHT22;24282;48.400;10.808;2023-04-01T11:28:15;9.30;79.10
38514;DHT22;24282;48.400;10.808;2023-04-01T11:33:44;9.20;79.70
38514;DHT22;24282;48.400;10.808;2023-04-01T11:39:29;9.20;79.90
38514;DHT22;24282;48.400;10.808;2023-04-01T11:45:57;9.20;79.20
38514;DHT22;24282;48.400;10.808;2023-04-01T11:54:15;9.40;78.80
38514;DHT22;24282;48.400;10.808;2023-04-01T12:02:32;9.30;79.30
38514;DHT22;24282;48.400;10.808;2023-04-01T12:10:54;9.40;79.30
38514;DHT22;24282;48.400;10.808;2023-04-01T12:16:11;9.50;78.60
38514;DHT22;24282;48.400;10.808;2023-04-01T12:18:57;9.50;78.50
38514;DHT22;24282;48.400;10.808;2023-04-01T12:21:40;9.50;78.40
38514;DHT22;24282;48.400;10.808;2023-04-01T12:27:26;9.50;78.70
38514;DHT22;24282;48.400;10.808;2023-04-01T12:39:27;9.40;79.40
38514;DHT22;24282;48.400;10.808;2023-04-01T12:55:43;9.60;79.90
38514;DHT22;24282;48.400;10.808;2023-04-01T13:01:38;9.70;79.50
38514;DHT22;24282;48.400;10.808;2023-04-01T13:17:36;9.60;80.30
38514;DHT22;24282;48.400;10.808;2023-04-01T13:28:26;9.80;78.10
38514;DHT22;24282;48.400;10.808;2023-04-01T13:31:02;9.80;78.30
38514;DHT22;24282;48.400;10.808;2023-04-01T13:33:57;9.80;78.00
38514;DHT22;24282;48.400;10.808;2023-04-01T13:36:42;9.70;78.70
38514;DHT22;24282;48.400;10.808;2023-04-01T13:44:49;9.80;78.40
38514;DHT22;24282;48.400;10.808;2023-04-01T14:10:16;10.20;75.60
38514;DHT22;24282;48.400;10.808;2023-04-01T14:18:26;10.40;75.10
38514;DHT22;24282;48.400;10.808;2023-04-01T14:32:16;10.30;77.30
38514;DHT22;24282;48.400;10.808;2023-04-01T14:49:04;10.40;77.60
38514;DHT22;24282;48.400;10.808;2023-04-01T14:54:14;10.40;76.60
38514;DHT22;24282;48.400;10.808;2023-04-01T14:56:50;10.30;76.50
38514;DHT22;24282;48.400;10.808;2023-04-01T14:59:27;10.40;77.80
38514;DHT22;24282;48.400;10.808;2023-04-01T15:04:54;10.70;74.70
38514;DHT22;24282;48.400;10.808;2023-04-01T15:07:27;10.70;74.90
38514;DHT22;24282;48.400;10.808;2023-04-01T15:16:01;10.70;74.50
38514;DHT22;24282;48.400;10.808;2023-04-01T15:25:13;10.50;73.70
38514;DHT22;24282;48.400;10.808;2023-04-01T15:38:45;10.40;73.00
38514;DHT22;24282;48.400;10.808;2023-04-01T15:43:48;10.40;73.50
38514;DHT22;24282;48.400;10.808;2023-04-01T15:57:18;10.50;72.80
38514;DHT22;24282;48.400;10.808;2023-04-01T16:00:02;10.60;72.10
38514;DHT22;24282;48.400;10.808;2023-04-01T16:03:00;10.50;72.90
38514;DHT22;24282;48.400;10.808;2023-04-01T16:13:55;10.60;71.30
38514;DHT22;24282;48.400;10.808;2023-04-01T16:36:13;10.30;71.40
38514;DHT22;24282;48.400;10.808;2023-04-01T16:41:35;10.30;71.60
38514;DHT22;24282;48.400;10.808;2023-04-01T16:44:23;10.30;71.40
38514;DHT22;24282;48.400;10.808;2023-04-01T16:47:08;10.20;72.10
38514;DHT22;24282;48.400;10.808;2023-04-01T16:49:42;10.20;72.30
38514;DHT22;24282;48.400;10.808;2023-04-01T16:52:15;10.10;72.50
38514;DHT22;24282;48.400;10.808;2023-04-01T16:54:59;10.20;72.40
38514;DHT22;24282;48.400;10.808;2023-04-01T16:57:31;10.30;72.20
38514;DHT22;24282;48.400;10.808;2023-04-01T17:00:14;10.20;72.50
38514;DHT22;24282;48.400;10.808;2023-04-01T17:06:12;10.00;73.20
38514;DHT22;24282;48.400;10.808;2023-04-01T17:08:52;10.10;72.80
38514;DHT22;24282;48.400;10.808;2023-04-01T17:14:31;10.00;73.30
38514;DHT22;24282;48.400;10.808;2023-04-01T17:17:31;10.00;72.50
38514;DHT22;24282;48.400;10.808;2023-04-01T17:34:02;9.80;74.20
38514;DHT22;24282;48.400;10.808;2023-04-01T17:45:24;9.90;74.40
38514;DHT22;24282;48.400;10.808;2023-04-01T17:48:47;9.70;74.60
38514;DHT22;24282;48.400;10.808;2023-04-01T18:13:24;9.50;75.50
38514;DHT22;24282;48.400;10.808;2023-04-01T18:19:02;9.40;75.90
38514;DHT22;24282;48.400;10.808;2023-04-01T18:21:47;9.40;75.50
38514;DHT22;24282;48.400;10.808;2023-04-01T18:24:28;9.40;75.30
38514;DHT22;24282;48.400;10.808;2023-04-01T18:27:06;9.40;75.60
38514;DHT22;24282;48.400;10.808;2023-04-01T18:29:53;9.30;75.60
38514;DHT22;24282;48.400;10.808;2023-04-01T18:32:28;9.30;75.90
38514;DHT22;24282;48.400;10.808;2023-04-01T18:37:34;9.40;75.10
38514;DHT22;24282;48.400;10.808;2023-04-01T18:40:32;9.40;75.50
38514;DHT22;24282;48.400;10.808;2023-04-01T18:43:26;9.40;75.10
38514;DHT22;24282;48.400;10.808;2023-04-01T18:46:12;9.40;75.00
38514;DHT22;24282;48.400;10.808;2023-04-01T18:55:16;9.30;75.00
38514;DHT22;24282;48.400;10.808;2023-04-01T18:57:19;9.30;75.00
38514;DHT22;24282;48.400;10.808;2023-04-01T19:00:05;9.30;75.20
38514;DHT22;24282;48.400;10.808;2023-04-01T19:02:48;9.40;74.60
38514;DHT22;24282;48.400;10.808;2023-04-01T19:05:33;9.40;74.40
38514;DHT22;24282;48.400;10.808;2023-04-01T19:19:21;9.40;74.00
38514;DHT22;24282;48.400;10.808;2023-04-01T19:21:55;9.40;74.20
38514;DHT22;24282;48.400;10.808;2023-04-01T19:27:21;9.40;74.00
38514;DHT22;24282;48.400;10.808;2023-04-01T19:44:00;9.40;74.00
38514;DHT22;24282;48.400;10.808;2023-04-01T19:46:44;9.40;74.20
38514;DHT22;24282;48.400;10.808;2023-04-01T20:13:43;9.20;74.50
38514;DHT22;24282;48.400;10.808;2023-04-01T20:16:12;9.10;74.50
38514;DHT22;24282;48.400;10.808;2023-04-01T20:18:59;9.20;74.40
38514;DHT22;24282;48.400;10.808;2023-04-01T20:21:30;9.20;74.30
38514;DHT22;24282;48.400;10.808;2023-04-01T20:26:58;9.20;74.10
38514;DHT22;24282;48.400;10.808;2023-04-01T20:29:40;9.20;74.20
38514;DHT22;24282;48.400;10.808;2023-04-01T21:03:18;8.90;75.40
38514;DHT22;24282;48.400;10.808;2023-04-01T21:30:50;8.80;75.90
38514;DHT22;24282;48.400;10.808;2023-04-01T21:56:31;8.50;77.10
38514;DHT22;24282;48.400;10.808;2023-04-01T22:12:58;8.40;77.60
38514;DHT22;24282;48.400;10.808;2023-04-01T22:15:56;8.40;77.70
38514;DHT22;24282;48.400;10.808;2023-04-01T22:21:15;8.40;77.90
38514;DHT22;24282;48.400;10.808;2023-04-01T22:24:02;8.40;77.70
38514;DHT22;24282;48.400;10.808;2023-04-01T22:26:50;8.30;77.70
38514;DHT22;24282;48.400;10.808;2023-04-01T22:29:42;8.30;77.90
38514;DHT22;24282;48.400;10.808;2023-04-01T22:37:26;8.20;78.40
38514;DHT22;24282;48.400;10.808;2023-04-01T22:50:46;8.00;78.70
38514;DHT22;24282;48.400;10.808;2023-04-01T22:55:50;8.00;78.80
38514;DHT22;24282;48.400;10.808;2023-04-01T22:58:21;8.10;78.70
38514;DHT22;24282;48.400;10.808;2023-04-01T23:00:54;8.10;78.60
38514;DHT22;24282;48.400;10.808;2023-04-01T23:03:22;8.00;78.70
38514;DHT22;24282;48.400;10.808;2023-04-01T23:05:54;8.00;79.00
38514;DHT22;24282;48.400;10.808;2023-04-01T23:11:06;8.00;79.20
38514;DHT22;24282;48.400;10.808;2023-04-01T23:13:43;8.00;79.00
38514;DHT22;24282;48.400;10.808;2023-04-01T23:16:11;8.00;79.00
38514;DHT22;24282;48.400;10.808;2023-04-01T23:18:55;8.10;78.90
38514;DHT22;24282;48.400;10.808;2023-04-01T23:21:51;8.10;78.80
38514;DHT22;24282;48.400;10.808;2023-04-01T23:24:30;8.10;78.70
38514;DHT22;24282;48.400;10.808;2023-04-01T23:29:56;8.20;78.40
38514;DHT22;24282;48.400;10.808;2023-04-01T23:32:25;8.20;78.30
38514;DHT22;24282;48.400;10.808;2023-04-01T23:34:57;8.20;78.30
38514;DHT22;24282;48.400;10.808;2023-04-01T23:37:23;8.30;78.10
38514;DHT22;24282;48.400;10.808;2023-04-01T23:42:32;8.20;78.00
38514;DHT22;24282;48.400;10.808;2023-04-01T23:45:02;8.30;77.50
38514;DHT22;24282;48.400;10.808;2023-04-01T23:47:33;8.30;77.60
38514;DHT22;24282;48.400;10.808;2023-04-01T23:50:16;8.30;77.70
38514;DHT22;24282;48.400;10.808;2023-04-01T23:52:52;8.20;77.90
38514;DHT22;24282;48.400;10.808;2023-04-01T23:55:24;8.20;77.70
